Terminal Aerodrome Forecast
Issued by NWS

Home | Current Version | Previous Version | Text Only | Print | Product List | Glossary On
Versions: 1 2 3 4 5 6 7 8 9 10 11 12 13 14
338
FTUS42 KTBW 271128
TAFPIE
TAF
KPIE 271128Z 2712/2812 08006KT P6SM SKC
     FM271800 VRB04KT P6SM SCT050
     FM272100 35007KT P6SM SCT050
     FM280100 08007KT P6SM FEW050
     FM280900 07005KT P6SM SCT025=

USA.gov is the U.S. government's official web portal to all federal, state and local government web resources and services.